createdAt,value
2016-05-24T00:00:02.026Z,94.55
2016-05-24T00:01:02.060Z,94.74
2016-05-24T00:02:02.109Z,95.41
2016-05-24T00:03:02.113Z,94.93
2016-05-24T00:05:02.149Z,94.45
2016-05-24T00:07:02.201Z,93.59
2016-05-24T00:08:02.219Z,94.45
2016-05-24T00:09:02.253Z,94.26
2016-05-24T00:11:02.306Z,95.31
2016-05-24T00:12:02.324Z,94.84
2016-05-24T00:13:02.342Z,95.12
2016-05-24T00:14:02.376Z,95.41
2016-05-24T00:15:16.585Z,95.22
2016-05-24T00:16:02.256Z,95.6
2016-05-24T00:17:02.447Z,94.74
2016-05-24T00:18:02.466Z,95.41
2016-05-24T00:19:02.483Z,95.31
2016-05-24T00:20:02.517Z,95.22
2016-05-24T00:21:02.536Z,95.41
2016-05-24T00:22:02.570Z,95.51
2016-05-24T00:24:02.450Z,95.51
2016-05-24T00:25:02.624Z,95.51
2016-05-24T00:26:02.658Z,95.12
2016-05-24T00:28:02.711Z,95.51
2016-05-24T00:29:02.729Z,95.79
2016-05-24T00:30:02.763Z,95.31
2016-05-24T00:31:16.972Z,95.6
2016-05-24T00:32:02.800Z,95.51
2016-05-24T00:33:02.834Z,95.31
2016-05-24T00:34:02.696Z,95.22
2016-05-24T00:35:02.870Z,95.12
2016-05-24T00:36:02.904Z,95.65
2016-05-24T00:37:02.937Z,95.56
2016-05-24T00:38:02.940Z,95.98
2016-05-24T00:39:02.975Z,95.6
2016-05-24T00:40:02.993Z,95.56
2016-05-24T00:42:03.045Z,95.6
2016-05-24T00:44:03.097Z,96.03
2016-05-24T00:45:03.131Z,96.42
2016-05-24T00:46:03.150Z,96.13
2016-05-24T00:47:17.358Z,96.03
2016-05-24T00:48:03.186Z,95.56
2016-05-24T00:49:03.220Z,96.27
2016-05-24T00:50:03.239Z,95.94
2016-05-24T00:51:03.273Z,96.22
2016-05-24T00:52:03.291Z,95.84
2016-05-24T00:53:03.310Z,96.32
2016-05-24T00:54:03.327Z,95.79
2016-05-24T00:55:03.361Z,96.03
2016-05-24T00:56:03.380Z,96.08
2016-05-24T00:57:03.414Z,95.27
2016-05-24T00:59:03.466Z,95.56
2016-05-24T01:00:03.578Z,96.27
2016-05-24T01:01:03.513Z,96.13
2016-05-24T01:02:03.404Z,96.7
2016-05-24T01:03:17.842Z,96.08
2016-05-24T01:04:03.670Z,96.66
2016-05-24T01:05:03.731Z,95.94
2016-05-24T01:06:03.771Z,96.13
2016-05-24T01:07:03.799Z,96.13
2016-05-24T01:08:03.843Z,96.32
2016-05-24T01:09:03.716Z,96.51
2016-05-24T01:10:03.760Z,96.32
2016-05-24T01:11:03.942Z,96.61
2016-05-24T01:12:03.964Z,97.28
2016-05-24T01:13:03.986Z,96.32
2016-05-24T01:14:04.024Z,96.8
2016-05-24T01:15:03.906Z,96.61
2016-05-24T01:16:04.099Z,97.09
2016-05-24T01:17:04.102Z,97.09
2016-05-24T01:18:18.313Z,97.09
2016-05-24T01:19:04.157Z,97.38
2016-05-24T01:20:04.176Z,97.28
2016-05-24T01:21:04.055Z,97.38
2016-05-24T01:22:04.231Z,97.47
2016-05-24T01:23:04.092Z,96.99
2016-05-24T01:24:04.283Z,96.7
2016-05-24T01:25:04.301Z,96.89
2016-05-24T01:26:04.321Z,97.09
2016-05-24T01:27:04.354Z,97.09
2016-05-24T01:29:04.235Z,96.99
2016-05-24T01:30:04.926Z,97.66
2016-05-24T01:31:04.444Z,97.28
2016-05-24T01:32:04.479Z,97.18
2016-05-24T01:33:04.498Z,97.38
2016-05-24T01:34:04.531Z,97.66
2016-05-24T01:35:04.549Z,97.95
2016-05-24T01:36:04.567Z,97.75
2016-05-24T01:37:04.601Z,97.28
2016-05-24T01:38:04.620Z,97.56
2016-05-24T01:39:04.655Z,97.85
2016-05-24T01:40:04.672Z,97.47
2016-05-24T01:41:04.706Z,97.75
2016-05-24T01:42:04.724Z,97.66
2016-05-24T01:43:04.743Z,97.66
2016-05-24T01:44:04.760Z,98.24
2016-05-24T01:46:04.813Z,97.75
2016-05-24T01:48:04.865Z,98.24
2016-05-24T01:49:04.884Z,98.57
2016-05-24T01:50:19.093Z,98.71
2016-05-24T01:51:04.937Z,97.85
2016-05-24T01:52:04.954Z,98.14
2016-05-24T01:53:04.988Z,97.95
2016-05-24T01:54:05.006Z,98.14
2016-05-24T01:55:05.025Z,97.66
2016-05-24T01:56:05.059Z,97.85
2016-05-24T01:57:05.078Z,97.66
2016-05-24T01:58:05.095Z,97.85
2016-05-24T01:59:05.114Z,97.56
2016-05-24T02:00:04.992Z,97.52
2016-05-24T02:01:05.167Z,98.14
2016-05-24T02:02:05.200Z,97.61
2016-05-24T02:03:05.219Z,97.95
2016-05-24T02:04:05.252Z,98.24
2016-05-24T02:05:05.270Z,98.14
2016-05-24T02:06:19.480Z,98.09
2016-05-24T02:07:05.323Z,98.14
2016-05-24T02:08:05.342Z,97.95
2016-05-24T02:09:05.360Z,97.38
2016-05-24T02:10:05.393Z,97.95
2016-05-24T02:11:05.411Z,97.66
2016-05-24T02:12:05.430Z,97.66
2016-05-24T02:13:05.464Z,97.8
2016-05-24T02:14:05.327Z,98
2016-05-24T02:16:05.535Z,98.19
2016-05-24T02:18:05.587Z,97.8
2016-05-24T02:20:05.639Z,98.28
2016-05-24T02:21:05.658Z,97.9
2016-05-24T02:22:19.865Z,98.09
2016-05-24T02:23:05.693Z,97.8
2016-05-24T02:24:05.728Z,97.71
2016-05-24T02:25:05.746Z,98.09
2016-05-24T02:26:05.781Z,98.38
2016-05-24T02:27:05.798Z,98.47
2016-05-24T02:29:05.851Z,99.15
2016-05-24T02:31:05.903Z,98.52
2016-05-24T02:32:05.922Z,99.05
2016-05-24T02:33:05.939Z,99.62
2016-05-24T02:34:05.973Z,99.52
2016-05-24T02:35:05.991Z,99.15
2016-05-24T02:36:06.011Z,98.57
2016-05-24T02:37:06.044Z,99.24
2016-05-24T02:38:20.252Z,98.86
2016-05-24T02:39:06.080Z,99
2016-05-24T02:40:06.114Z,99.48
2016-05-24T02:41:06.149Z,98.61
2016-05-24T02:42:06.167Z,98.71
2016-05-24T02:43:06.202Z,99.52
2016-05-24T02:44:06.204Z,98.66
2016-05-24T02:45:06.252Z,99.24
2016-05-24T02:46:06.255Z,99.33
2016-05-24T02:47:06.337Z,99.15
2016-05-24T02:48:06.308Z,99.43
2016-05-24T02:49:06.389Z,99.99
2016-05-24T02:50:06.345Z,99.52
2016-05-24T02:51:06.223Z,99.52
2016-05-24T02:52:06.334Z,99.62
2016-05-24T02:53:20.606Z,99.72
2016-05-24T02:54:06.449Z,99.52
2016-05-24T02:55:06.312Z,99.72
2016-05-24T02:56:06.501Z,99.43
2016-05-24T02:57:06.520Z,99.72
2016-05-24T02:58:06.554Z,99.43
2016-05-24T02:59:06.573Z,99.52
2016-05-24T03:00:06.590Z,99.99
2016-05-24T03:01:06.625Z,99.99
2016-05-24T03:02:06.642Z,99.24
2016-05-24T03:03:06.505Z,99.72
2016-05-24T03:05:06.714Z,99.43
2016-05-24T03:06:06.591Z,99.43
2016-05-24T03:07:06.766Z,98.95
2016-05-24T03:08:06.784Z,99.72
2016-05-24T03:09:06.661Z,99.72
2016-05-24T03:10:06.836Z,99.52
2016-05-24T03:11:06.855Z,99.99
2016-05-24T03:12:06.888Z,99.43
2016-05-24T03:13:06.907Z,99.81
2016-05-24T03:14:06.924Z,99.91
2016-05-24T03:16:06.821Z,99.99
2016-05-24T03:17:06.996Z,99.67
2016-05-24T03:18:07.030Z,99.99
2016-05-24T03:19:07.048Z,99.99
2016-05-24T03:20:07.081Z,99.99
2016-05-24T03:21:07.099Z,99.96
2016-05-24T03:22:07.134Z,99.67
2016-05-24T03:23:07.152Z,99.67
2016-05-24T03:24:07.171Z,99.48
2016-05-24T03:25:21.379Z,99.87
2016-05-24T03:26:07.223Z,99.87
2016-05-24T03:27:07.241Z,99.87
2016-05-24T03:28:07.275Z,99.58
2016-05-24T03:29:07.293Z,99.58
2016-05-24T03:31:07.189Z,99.48
2016-05-24T03:32:07.364Z,99.38
2016-05-24T03:33:07.382Z,99
2016-05-24T03:34:07.416Z,99.99
2016-05-24T03:36:07.453Z,99.15
2016-05-24T03:37:07.486Z,98.86
2016-05-24T03:38:07.506Z,98.76
2016-05-24T03:39:07.523Z,98.67
2016-05-24T03:40:07.558Z,99.05
2016-05-24T03:41:21.766Z,99.05
2016-05-24T03:42:07.610Z,99.43
2016-05-24T03:43:07.471Z,99.05
2016-05-24T03:44:07.662Z,98.57
2016-05-24T03:45:07.539Z,99.53
2016-05-24T03:46:07.699Z,98.96
2016-05-24T03:47:07.716Z,98.47
2016-05-24T03:48:07.751Z,98.67
2016-05-24T03:49:07.784Z,98.76
2016-05-24T03:50:07.788Z,98.28
2016-05-24T03:51:07.821Z,98.81
2016-05-24T03:53:07.873Z,98.72
2016-05-24T03:54:07.893Z,98.24
2016-05-24T03:55:07.910Z,99.01
2016-05-24T03:56:07.788Z,98.72
2016-05-24T03:57:22.153Z,99.48
2016-05-24T03:58:07.996Z,99.48
2016-05-24T03:59:08.015Z,98.81
2016-05-24T04:00:08.048Z,98.05
2016-05-24T04:01:08.067Z,98.81
2016-05-24T04:02:08.085Z,98.24
2016-05-24T04:03:08.119Z,97.95
2016-05-24T04:05:08.172Z,98.43
2016-05-24T04:06:08.190Z,98.14
2016-05-24T04:07:08.208Z,97.85
2016-05-24T04:08:08.242Z,98.19
2016-05-24T04:09:08.260Z,98.28
2016-05-24T04:10:08.138Z,97.52
2016-05-24T04:11:08.313Z,98.1
2016-05-24T04:12:08.331Z,97.81
2016-05-24T04:13:22.539Z,97.38
2016-05-24T04:14:08.383Z,97.95
2016-05-24T04:15:08.682Z,96.32
2016-05-24T04:16:08.435Z,95.75
2016-05-24T04:17:08.455Z,95.75
2016-05-24T04:18:08.488Z,96.13
2016-05-24T04:19:08.506Z,95.84
2016-05-24T04:20:08.540Z,96.85
2016-05-24T04:21:08.557Z,96.66
2016-05-24T04:22:08.593Z,95.89
2016-05-24T04:23:08.610Z,96.47
2016-05-24T04:24:08.629Z,97.04
2016-05-24T04:25:08.491Z,96.89
2016-05-24T04:27:08.715Z,95.46
2016-05-24T04:28:22.924Z,97.19
2016-05-24T04:29:08.752Z,95.65
2016-05-24T04:30:08.895Z,95.17
2016-05-24T04:31:08.804Z,95.65
2016-05-24T04:32:08.822Z,95.36
2016-05-24T04:33:08.856Z,96.51
2016-05-24T04:34:08.875Z,95.07
2016-05-24T04:35:08.909Z,94.31
2016-05-24T04:36:08.926Z,94.4
2016-05-24T04:38:08.978Z,92.33
2016-05-24T04:40:09.031Z,90.84
2016-05-24T04:41:09.065Z,90.66
2016-05-24T04:42:09.083Z,88.73
2016-05-24T04:43:09.102Z,87.86
2016-05-24T04:44:08.979Z,85.88
2016-05-24T04:45:09.451Z,83.42
2016-05-24T04:46:09.188Z,80.87
2016-05-24T04:47:09.206Z,80.77
2016-05-24T04:48:09.068Z,80.68
2016-05-24T04:49:09.258Z,79.03
2016-05-24T04:50:09.292Z,78.79
2016-05-24T04:51:09.311Z,76.8
2016-05-24T04:52:09.345Z,74.72
2016-05-24T04:53:09.379Z,73.75
2016-05-24T04:54:09.287Z,73.66
2016-05-24T04:55:09.431Z,72.54
2016-05-24T04:57:09.483Z,71.9
2016-05-24T04:58:09.502Z,70.58
2016-05-24T04:59:09.535Z,70.97
2016-05-24T05:00:23.760Z,67.72
2016-05-24T05:01:09.604Z,68.78
2016-05-24T05:02:09.621Z,69.07
2016-05-24T05:03:09.656Z,66.69
2016-05-24T05:04:09.690Z,66.5
2016-05-24T05:05:09.723Z,66.2
2016-05-24T05:06:09.742Z,67.27
2016-05-24T05:07:09.775Z,66.69
2016-05-24T05:08:09.809Z,65.56
2016-05-24T05:09:09.828Z,65.27
2016-05-24T05:10:09.862Z,66.4
2016-05-24T05:11:09.880Z,66.2
2016-05-24T05:12:09.914Z,64.21
2016-05-24T05:13:09.948Z,63.05
2016-05-24T05:14:09.983Z,63.08
2016-05-24T05:15:10.016Z,62.88
2016-05-24T05:16:24.224Z,62.5
2016-05-24T05:17:10.068Z,62.79
2016-05-24T05:18:10.118Z,62.21
2016-05-24T05:20:10.170Z,59.94
2016-05-24T05:21:10.188Z,60.82
2016-05-24T05:22:10.222Z,60.5
2016-05-24T05:23:10.272Z,58.98
2016-05-24T05:24:10.291Z,59.07
2016-05-24T05:26:10.343Z,60.66
2016-05-24T05:27:10.377Z,58.59
2016-05-24T05:28:10.410Z,57.81
2016-05-24T05:29:10.287Z,58.78
2016-05-24T05:30:11.087Z,61.33
2016-05-24T05:31:10.496Z,62.73
2016-05-24T05:32:24.720Z,64.14
2016-05-24T05:33:10.408Z,62.79
2016-05-24T05:34:10.599Z,64.59
2016-05-24T05:35:10.632Z,66.3
2016-05-24T05:36:10.666Z,67.14
2016-05-24T05:37:10.685Z,67.17
2016-05-24T05:39:10.752Z,67.14
2016-05-24T05:40:10.786Z,64.98
2016-05-24T05:41:10.820Z,64.98
2016-05-24T05:42:10.854Z,67.85
2016-05-24T05:43:10.872Z,67.33
2016-05-24T05:44:10.750Z,67.91
2016-05-24T05:45:10.941Z,66.49
2016-05-24T05:46:10.958Z,68.13
2016-05-24T05:47:10.992Z,67.27
2016-05-24T05:48:25.201Z,67.71
2016-05-24T05:49:10.888Z,67.62
2016-05-24T05:50:11.080Z,68.93
2016-05-24T05:51:11.128Z,69.42
2016-05-24T05:52:11.131Z,69.9
2016-05-24T05:53:11.008Z,70
2016-05-24T05:55:11.232Z,69.71
2016-05-24T05:56:11.251Z,70.92
2016-05-24T05:57:11.285Z,70.25
2016-05-24T05:59:11.337Z,70.25
2016-05-24T06:00:11.371Z,71.41
2016-05-24T06:01:11.249Z,71.79
2016-05-24T06:02:11.423Z,73.55
2016-05-24T06:03:25.647Z,74.86
2016-05-24T06:04:11.475Z,74.86
2016-05-24T06:05:11.541Z,74.32
2016-05-24T06:06:11.528Z,73.36
2016-05-24T06:07:11.578Z,74.13
2016-05-24T06:08:11.595Z,73.55
2016-05-24T06:09:11.614Z,74.71
2016-05-24T06:10:11.491Z,73.01
2016-05-24T06:11:11.666Z,72.81
2016-05-24T06:12:11.701Z,73.58
2016-05-24T06:15:12.053Z,73.39
2016-05-24T06:16:16.336Z,72.91
2016-05-24T06:17:15.354Z,74.16
2016-05-24T06:18:11.872Z,73.39
2016-05-24T06:19:11.891Z,73.39
2016-05-24T06:20:11.925Z,72.95
2016-05-24T06:21:11.944Z,72.08
2016-05-24T06:22:11.977Z,71.15
2016-05-24T06:23:11.996Z,70.48
2016-05-24T06:24:12.029Z,70
2016-05-24T06:25:12.048Z,69.71
2016-05-24T06:26:12.097Z,70.54
2016-05-24T06:27:12.116Z,71.31
2016-05-24T06:28:12.134Z,72.47
2016-05-24T06:29:12.152Z,71.79
2016-05-24T06:30:12.187Z,72.63
2016-05-24T06:31:12.220Z,73.46
2016-05-24T06:32:12.238Z,73.65
2016-05-24T06:33:12.288Z,74.96
2016-05-24T06:34:12.307Z,75.63
2016-05-24T06:35:26.515Z,74.57
2016-05-24T06:36:12.187Z,76.11
2016-05-24T06:37:12.221Z,75.15
2016-05-24T06:38:12.411Z,75.59
2016-05-24T06:39:12.429Z,76.31
2016-05-24T06:40:12.464Z,75.34
2016-05-24T06:41:12.482Z,73.99
2016-05-24T06:42:12.515Z,74.96
2016-05-24T06:43:12.549Z,75.44
2016-05-24T06:44:12.567Z,74.67
2016-05-24T06:45:13.102Z,74.09
2016-05-24T06:46:12.620Z,73.26
2016-05-24T06:47:12.654Z,73.16
2016-05-24T06:48:12.688Z,73.51
2016-05-24T06:49:12.691Z,73.71
2016-05-24T06:50:12.725Z,73.36
2016-05-24T06:51:26.933Z,72.88
2016-05-24T06:52:12.777Z,72.68
2016-05-24T06:53:12.795Z,72.3
2016-05-24T06:54:12.891Z,71.34
2016-05-24T06:55:12.863Z,73.26
2016-05-24T06:56:12.882Z,73.13
2016-05-24T06:57:12.899Z,72.3
2016-05-24T06:58:13.027Z,72.59
2016-05-24T06:59:12.952Z,72.59
2016-05-24T07:00:13.455Z,71.91
2016-05-24T07:01:12.849Z,71.72
2016-05-24T07:03:13.088Z,72.39
2016-05-24T07:04:13.090Z,73.26
2016-05-24T07:05:13.124Z,74.29
2016-05-24T07:06:13.143Z,74.09
2016-05-24T07:07:27.351Z,73.46
2016-05-24T07:08:13.195Z,73.22
2016-05-24T07:09:13.245Z,73.32
2016-05-24T07:10:13.263Z,73.16
2016-05-24T07:11:13.281Z,72.88
2016-05-24T07:12:13.315Z,71.53
2016-05-24T07:13:13.334Z,71.76
2016-05-24T07:14:13.352Z,70.89
2016-05-24T07:15:13.464Z,70.31
2016-05-24T07:16:13.403Z,70.15
2016-05-24T07:17:13.438Z,69.67
2016-05-24T07:18:13.456Z,69.48
2016-05-24T07:19:13.333Z,69.29
2016-05-24T07:20:13.524Z,69.77
2016-05-24T07:21:13.542Z,69.29
2016-05-24T07:23:27.785Z,70.15
2016-05-24T07:24:13.628Z,69.23
2016-05-24T07:25:13.647Z,70.54
2016-05-24T07:26:13.681Z,70.15
2016-05-24T07:27:13.746Z,70.44
2016-05-24T07:28:13.733Z,71.12
2016-05-24T07:29:13.846Z,71.85
2016-05-24T07:30:14.285Z,72.2
2016-05-24T07:31:13.866Z,72.81
2016-05-24T07:32:13.837Z,71.18
2016-05-24T07:33:13.871Z,70.73
2016-05-24T07:34:13.890Z,71.56
2016-05-24T07:35:13.908Z,71.02
2016-05-24T07:36:13.942Z,69.09
2016-05-24T07:37:13.960Z,70.64
2016-05-24T07:38:28.185Z,69.96
2016-05-24T07:39:14.029Z,71.18
2016-05-24T07:40:14.000Z,71.91
2016-05-24T07:41:14.081Z,71.56
2016-05-24T07:42:14.098Z,71.66
2016-05-24T07:43:14.133Z,71.28
2016-05-24T07:44:14.011Z,71.85
2016-05-24T07:45:14.669Z,71.95
2016-05-24T07:46:14.360Z,71.18
2016-05-24T07:47:14.237Z,72.53
2016-05-24T07:48:14.255Z,72.05
2016-05-24T07:50:15.323Z,71.66
2016-05-24T07:51:14.358Z,72.24
2016-05-24T07:52:14.376Z,72.11
2016-05-24T07:53:14.394Z,71.85
2016-05-24T07:54:14.428Z,72.24
2016-05-24T07:55:14.446Z,72.81
2016-05-24T07:56:14.324Z,71.56
2016-05-24T07:57:14.499Z,71.37
2016-05-24T07:58:14.533Z,70.7
2016-05-24T07:59:14.551Z,71.08
2016-05-24T08:00:14.585Z,71.43
2016-05-24T08:01:14.446Z,71.85
2016-05-24T08:02:14.637Z,70.7
2016-05-24T08:03:14.655Z,70.44
2016-05-24T08:04:14.533Z,70.21
2016-05-24T08:05:14.708Z,69.87
2016-05-24T08:06:14.741Z,70.06
2016-05-24T08:07:14.776Z,69.38
2016-05-24T08:08:14.793Z,68.71
2016-05-24T08:09:14.812Z,68.9
2016-05-24T08:10:29.037Z,68.61
2016-05-24T08:11:14.865Z,69.67
2016-05-24T08:12:14.898Z,69.48
2016-05-24T08:13:14.932Z,68.71
2016-05-24T08:14:14.951Z,68.8
2016-05-24T08:15:16.484Z,69.48
2016-05-24T08:16:15.003Z,67.16
2016-05-24T08:17:15.037Z,67.16
2016-05-24T08:18:15.056Z,67.2
2016-05-24T08:19:15.089Z,67.26
2016-05-24T08:20:15.513Z,66.04
2016-05-24T08:21:15.141Z,65.75
2016-05-24T08:22:15.176Z,65.3
2016-05-24T08:23:15.194Z,66.14
2016-05-24T08:24:15.056Z,67.26
2016-05-24T08:25:15.247Z,67.36
2016-05-24T08:26:29.454Z,66.04
2016-05-24T08:27:15.297Z,64.69
2016-05-24T08:28:15.332Z,64.72
2016-05-24T08:29:15.366Z,65.08
2016-05-24T08:30:15.400Z,64.43
2016-05-24T08:31:15.402Z,64.24
2016-05-24T08:32:15.436Z,64.53
2016-05-24T08:33:15.299Z,65.3
2016-05-24T08:34:15.488Z,65.95
2016-05-24T08:35:17.116Z,67
2016-05-24T08:36:15.541Z,66.66
2016-05-24T08:37:15.404Z,65.98
2016-05-24T08:38:15.437Z,65.4
2016-05-24T08:39:15.627Z,64.86
2016-05-24T08:40:15.661Z,64.37
2016-05-24T08:41:15.679Z,64.66
2016-05-24T08:42:29.888Z,64.63
2016-05-24T08:43:15.732Z,64.82
2016-05-24T08:44:15.766Z,64.34
2016-05-24T08:45:18.221Z,64.18
2016-05-24T08:46:15.818Z,63.5
2016-05-24T08:47:15.836Z,64.34
2016-05-24T08:48:15.870Z,63.95
2016-05-24T08:49:15.888Z,63.7
2016-05-24T08:50:16.359Z,64.66
2016-05-24T08:51:15.957Z,65.69
2016-05-24T08:52:15.975Z,66.52
2016-05-24T08:53:16.008Z,66.52
2016-05-24T08:54:16.042Z,67.1
2016-05-24T08:55:15.905Z,67.94
2016-05-24T08:56:16.079Z,69.48
2016-05-24T08:57:16.114Z,69.87
2016-05-24T08:58:30.322Z,71.18
2016-05-24T08:59:16.166Z,71.72
2016-05-24T09:00:19.355Z,71.66
2016-05-24T09:01:16.358Z,71.72
2016-05-24T09:02:16.252Z,71.24
2016-05-24T09:03:16.269Z,71.72
2016-05-24T09:04:16.305Z,71.81
2016-05-24T09:05:16.525Z,71.43
2016-05-24T09:06:16.356Z,71.91
2016-05-24T09:07:16.374Z,71.81
2016-05-24T09:08:16.440Z,69.73
2016-05-24T09:09:16.427Z,69.93
2016-05-24T09:10:17.960Z,70.02
2016-05-24T09:11:16.479Z,70.02
2016-05-24T09:12:16.513Z,70.47
2016-05-24T09:13:30.737Z,70.66
2016-05-24T09:14:16.565Z,70.98
2016-05-24T09:15:18.334Z,70.95
2016-05-24T09:16:16.618Z,71.04
2016-05-24T09:17:16.636Z,71.34
2016-05-24T09:18:16.670Z,71.14
2016-05-24T09:19:16.703Z,71.14
2016-05-24T09:20:19.034Z,70.56
2016-05-24T09:21:16.756Z,71.72
2016-05-24T09:23:16.808Z,71.28
2016-05-24T09:24:16.826Z,69.54
2016-05-24T09:25:16.861Z,70.6
2016-05-24T09:26:16.879Z,70.12
2016-05-24T09:27:16.913Z,69.64
2016-05-24T09:28:16.930Z,70.41
2016-05-24T09:29:16.965Z,70.37
2016-05-24T09:30:20.499Z,70.95
2016-05-24T09:31:17.017Z,71.53
2016-05-24T09:32:17.036Z,70.79
2016-05-24T09:33:17.069Z,70.7
2016-05-24T09:34:17.182Z,70.47
2016-05-24T09:35:18.935Z,70.76
2016-05-24T09:36:17.140Z,71.53
2016-05-24T09:37:17.173Z,72.01
2016-05-24T09:38:17.193Z,71.72
2016-05-24T09:39:17.226Z,71.43
2016-05-24T09:40:19.182Z,71.53
2016-05-24T09:41:17.122Z,71.43
2016-05-24T09:42:17.296Z,71.91
2016-05-24T09:43:17.331Z,71.34
2016-05-24T09:44:17.349Z,71.14
2016-05-24T09:45:33.495Z,71.81
2016-05-24T09:46:17.432Z,71.49
2016-05-24T09:47:17.466Z,72.55
2016-05-24T09:48:17.454Z,72.36
2016-05-24T09:49:17.488Z,73.47
2016-05-24T09:50:19.770Z,72.8
2016-05-24T09:51:17.587Z,73.22
2016-05-24T09:52:17.433Z,73.03
2016-05-24T09:53:17.592Z,72.45
2016-05-24T09:56:17.506Z,71.69
2016-05-24T09:57:17.697Z,71.34
2016-05-24T09:58:17.714Z,70.09
2016-05-24T09:59:17.749Z,70.56
2016-05-24T10:00:18.345Z,69.51
2016-05-24T10:01:31.991Z,68.74
2016-05-24T10:02:17.819Z,68.77
2016-05-24T10:03:17.853Z,68.96
2016-05-24T10:04:17.716Z,68.68
2016-05-24T10:05:19.577Z,69.51
2016-05-24T10:06:17.923Z,69.31
2016-05-24T10:07:17.971Z,69.12
2016-05-24T10:09:18.067Z,68.84
2016-05-24T10:10:19.483Z,69.89
2016-05-24T10:11:18.195Z,69.79
2016-05-24T10:12:18.194Z,68.44
2016-05-24T10:13:18.237Z,68.19
2016-05-24T10:14:18.263Z,68.44
2016-05-24T10:15:19.430Z,68.96
2016-05-24T10:16:18.332Z,68.1
2016-05-24T10:17:32.548Z,67.71
2016-05-24T10:18:18.408Z,67.65
2016-05-24T10:19:18.428Z,67.23
2016-05-24T10:20:19.543Z,67.52
2016-05-24T10:21:18.330Z,66.49
2016-05-24T10:22:18.506Z,67.26
2016-05-24T10:23:18.541Z,66.97
2016-05-24T10:24:18.404Z,67.74
2016-05-24T10:25:19.892Z,68.77
2016-05-24T10:26:18.615Z,68.23
2016-05-24T10:27:18.650Z,68.32
2016-05-24T10:28:18.668Z,68.58
2016-05-24T10:29:18.546Z,68.13
2016-05-24T10:30:20.643Z,67.65
2016-05-24T10:31:18.849Z,67.9
2016-05-24T10:32:18.774Z,67.55
2016-05-24T10:33:32.982Z,67.33
2016-05-24T10:34:18.842Z,68.96
2016-05-24T10:36:18.894Z,68.48
2016-05-24T10:37:18.912Z,68.58
2016-05-24T10:38:18.931Z,67.84
2016-05-24T10:39:18.981Z,68.68
2016-05-24T10:40:20.811Z,68.68
2016-05-24T10:41:19.017Z,69.41
2016-05-24T10:42:19.051Z,68.77
2016-05-24T10:43:18.913Z,68.77
2016-05-24T10:44:18.931Z,68.87
2016-05-24T10:45:21.497Z,69.54
2016-05-24T10:46:19.155Z,68.58
2016-05-24T10:47:19.174Z,69.93
2016-05-24T10:48:33.383Z,69.89
2016-05-24T10:49:19.226Z,70.09
2016-05-24T10:50:21.463Z,69.79
2016-05-24T10:51:19.278Z,69.89
2016-05-24T10:52:19.344Z,69.79
2016-05-24T10:53:19.174Z,69.7
2016-05-24T10:54:19.364Z,69.93
2016-05-24T10:55:21.538Z,68.77
2016-05-24T10:56:19.401Z,69.73
2016-05-24T10:57:19.357Z,68.48
2016-05-24T10:58:19.454Z,67.94
2016-05-24T10:59:19.487Z,67.46
2016-05-24T11:00:21.412Z,65.85
2016-05-24T11:01:19.539Z,65.17
2016-05-24T11:02:19.574Z,65.27
2016-05-24T11:03:19.607Z,64.72
2016-05-24T11:05:20.879Z,64.43
2016-05-24T11:06:19.678Z,64.21
2016-05-24T11:07:19.790Z,64.53
2016-05-24T11:08:19.731Z,65.91
2016-05-24T11:09:19.592Z,65.37
2016-05-24T11:10:19.782Z,65.37
2016-05-24T11:11:19.910Z,64.89
2016-05-24T11:13:19.869Z,67.07
2016-05-24T11:15:20.390Z,68
2016-05-24T11:16:20.017Z,67.52
2016-05-24T11:17:19.847Z,66.88
2016-05-24T11:18:19.992Z,67.26
2016-05-24T11:19:20.025Z,67.61
2016-05-24T11:20:34.231Z,67.26
2016-05-24T11:21:20.078Z,66.39
2016-05-24T11:22:20.096Z,65.81
2016-05-24T11:23:19.958Z,64.5
2016-05-24T11:24:20.149Z,63.95
2016-05-24T11:25:20.182Z,63.37
2016-05-24T11:26:20.216Z,63.09
2016-05-24T11:28:20.252Z,61.22
2016-05-24T11:29:20.271Z,61.96
2016-05-24T11:30:20.165Z,61.89
2016-05-24T11:31:20.339Z,61.22
2016-05-24T11:32:20.201Z,60.86
2016-05-24T11:33:20.391Z,59.77
2016-05-24T11:34:20.410Z,61.02
2016-05-24T11:35:20.444Z,59.86
2016-05-24T11:36:34.649Z,60.76
2016-05-24T11:37:20.495Z,61.31
2016-05-24T11:38:20.514Z,60.35
2016-05-24T11:39:20.392Z,59.19
2016-05-24T11:40:20.645Z,59.7
2016-05-24T11:41:20.600Z,61.31
2016-05-24T11:42:20.650Z,61.74
2016-05-24T11:43:20.668Z,61.47
2016-05-24T11:44:20.686Z,60.64
2016-05-24T11:45:21.095Z,59.77
2016-05-24T11:46:20.753Z,60.18
2016-05-24T11:47:20.835Z,59.12
2016-05-24T11:49:20.887Z,59.08
2016-05-24T11:50:20.844Z,56.98
2016-05-24T11:51:20.878Z,56.4
2016-05-24T11:52:35.082Z,56.88
2016-05-24T11:53:20.930Z,56.79
2016-05-24T11:54:20.964Z,56.02
2016-05-24T11:55:21.013Z,56.5
2016-05-24T11:56:21.016Z,56.76
2016-05-24T11:57:21.112Z,56.79
2016-05-24T11:58:21.068Z,57.18
2016-05-24T12:01:20.998Z,59.25
2016-05-24T12:02:21.188Z,57.7
2016-05-24T12:03:21.221Z,57.89
2016-05-24T12:04:21.240Z,58.57
2016-05-24T12:05:21.274Z,58.93
2016-05-24T12:07:21.170Z,59.6
2016-05-24T12:08:35.532Z,58.64
2016-05-24T12:09:21.379Z,60.38
2016-05-24T12:10:21.413Z,58.67
2016-05-24T12:11:21.431Z,56.76
2016-05-24T12:12:21.465Z,57.73
2016-05-24T12:13:21.498Z,57.99
2016-05-24T12:14:21.517Z,58.35
2016-05-24T12:15:21.614Z,58.9
2016-05-24T12:16:21.569Z,59.02
2016-05-24T12:17:21.619Z,59.12
2016-05-24T12:18:21.653Z,60.25
2016-05-24T12:20:21.689Z,60.89
2016-05-24T12:21:21.722Z,61.77
2016-05-24T12:22:21.742Z,62.22
2016-05-24T12:23:35.947Z,61.77
2016-05-24T12:24:21.888Z,63.28
2016-05-24T12:25:21.827Z,62.99
2016-05-24T12:26:21.847Z,62.12
2016-05-24T12:27:21.880Z,62.34
2016-05-24T12:28:21.913Z,60.54
2016-05-24T12:29:21.932Z,60.25
2016-05-24T12:30:21.966Z,59.58
2016-05-24T12:31:22.063Z,59.96
2016-05-24T12:32:22.082Z,60.54
2016-05-24T12:33:22.052Z,59.7
2016-05-24T12:34:22.118Z,59.99
2016-05-24T12:35:22.105Z,58.57
2016-05-24T12:36:22.327Z,58.67
2016-05-24T12:37:22.157Z,59.44
2016-05-24T12:38:22.051Z,58.83
2016-05-24T12:39:22.271Z,58.57
2016-05-24T12:40:22.243Z,58.02
2016-05-24T12:41:22.262Z,57.34
2016-05-24T12:42:22.139Z,57.15
2016-05-24T12:43:22.329Z,56.88
2016-05-24T12:44:22.191Z,56.7
2016-05-24T12:45:22.381Z,55.15
2016-05-24T12:46:22.401Z,56.79
2016-05-24T12:47:22.434Z,55.53
2016-05-24T12:48:22.467Z,56.76
2016-05-24T12:49:22.486Z,56.79
2016-05-24T12:50:22.520Z,55.73
2016-05-24T12:51:22.554Z,54.79
2016-05-24T12:52:22.589Z,54.49
2016-05-24T12:53:22.700Z,54.69
2016-05-24T12:54:22.625Z,56.21
2016-05-24T12:55:36.847Z,56.37
2016-05-24T12:56:22.692Z,56.76
2016-05-24T12:57:22.727Z,56.67
2016-05-24T12:58:22.744Z,57.15
2016-05-24T12:59:22.872Z,56.76
2016-05-24T13:00:23.235Z,56.95
2016-05-24T13:02:22.849Z,57.44
2016-05-24T13:03:22.883Z,58.02
2016-05-24T13:04:22.917Z,57.15
2016-05-24T13:05:22.779Z,57.79
2016-05-24T13:06:22.969Z,57.51
2016-05-24T13:07:22.988Z,57.51
2016-05-24T13:08:23.021Z,57.6
2016-05-24T13:10:23.073Z,58.28
2016-05-24T13:11:37.280Z,56.57
2016-05-24T13:12:23.142Z,56.57
2016-05-24T13:13:23.160Z,57.05
2016-05-24T13:14:24.288Z,56.76
2016-05-24T13:15:23.556Z,57.63
2016-05-24T13:16:23.246Z,56.5
2016-05-24T13:17:23.280Z,56.47
2016-05-24T13:19:24.317Z,57.99
2016-05-24T13:20:23.351Z,57.63
2016-05-24T13:21:23.384Z,57.24
2016-05-24T13:22:23.341Z,57.82
2016-05-24T13:23:23.452Z,57.44
2016-05-24T13:24:23.471Z,58.4
2016-05-24T13:25:23.505Z,56.6
2016-05-24T13:26:23.522Z,56.7
2016-05-24T13:27:37.730Z,56.79
2016-05-24T13:28:23.576Z,56.79
2016-05-24T13:29:23.453Z,56.21
2016-05-24T13:31:23.677Z,57.44
2016-05-24T13:32:23.539Z,57.54
2016-05-24T13:33:23.558Z,57.51
2016-05-24T13:34:23.763Z,57.7
2016-05-24T13:35:23.782Z,58.6
2016-05-24T13:36:23.800Z,57.24
2016-05-24T13:37:23.834Z,56.6
2016-05-24T13:38:23.852Z,57.73
2016-05-24T13:39:25.090Z,57.44
2016-05-24T13:40:23.920Z,57.44
2016-05-24T13:41:23.954Z,57.63
2016-05-24T13:42:23.973Z,57.05
2016-05-24T13:43:38.178Z,56.7
2016-05-24T13:44:24.025Z,56.79
2016-05-24T13:45:24.120Z,55.63
2016-05-24T13:46:24.092Z,56.4
2016-05-24T13:47:24.112Z,57.54
2016-05-24T13:48:24.145Z,57.41
2016-05-24T13:49:24.163Z,57.63